sensor_id;sensor_type;location;lat;lon;timestamp;pressure;altitude;pressure_sealevel;temperature;humidity
66524;BME280;53350;52.210;5.160;2023-04-04T00:00:36;103155.06;;;5.85;56.13
66524;BME280;53350;52.210;5.160;2023-04-04T00:03:03;103156.63;;;5.81;56.76
66524;BME280;53350;52.210;5.160;2023-04-04T00:05:30;103147.13;;;5.79;56.70
66524;BME280;53350;52.210;5.160;2023-04-04T00:07:58;103140.25;;;5.78;56.84
66524;BME280;53350;52.210;5.160;2023-04-04T00:10:25;103136.63;;;5.72;57.00
66524;BME280;53350;52.210;5.160;2023-04-04T00:12:51;103137.09;;;5.64;56.99
66524;BME280;53350;52.210;5.160;2023-04-04T00:15:18;103143.66;;;5.58;57.28
66524;BME280;53350;52.210;5.160;2023-04-04T00:17:44;103131.63;;;5.56;57.46
66524;BME280;53350;52.210;5.160;2023-04-04T00:20:11;103137.56;;;5.55;57.56
66524;BME280;53350;52.210;5.160;2023-04-04T00:22:38;103122.09;;;5.52;57.47
66524;BME280;53350;52.210;5.160;2023-04-04T00:25:07;103124.72;;;5.53;57.21
66524;BME280;53350;52.210;5.160;2023-04-04T00:27:33;103117.91;;;5.54;57.61
66524;BME280;53350;52.210;5.160;2023-04-04T00:30:00;103117.84;;;5.52;57.77
66524;BME280;53350;52.210;5.160;2023-04-04T00:32:26;103120.47;;;5.54;58.14
66524;BME280;53350;52.210;5.160;2023-04-04T00:34:53;103108.41;;;5.51;58.33
66524;BME280;53350;52.210;5.160;2023-04-04T00:37:21;103110.69;;;5.45;58.34
66524;BME280;53350;52.210;5.160;2023-04-04T00:39:47;103111.22;;;5.38;58.60
66524;BME280;53350;52.210;5.160;2023-04-04T00:42:15;103127.22;;;5.34;58.38
66524;BME280;53350;52.210;5.160;2023-04-04T00:44:42;103124.66;;;5.34;58.94
66524;BME280;53350;52.210;5.160;2023-04-04T00:47:09;103125.63;;;5.36;59.05
66524;BME280;53350;52.210;5.160;2023-04-04T00:49:35;103120.56;;;5.37;58.99
66524;BME280;53350;52.210;5.160;2023-04-04T00:52:02;103125.63;;;5.36;59.01
66524;BME280;53350;52.210;5.160;2023-04-04T00:54:31;103118.75;;;5.35;58.71
66524;BME280;53350;52.210;5.160;2023-04-04T00:56:58;103115.22;;;5.33;58.59
66524;BME280;53350;52.210;5.160;2023-04-04T00:59:27;103108.31;;;5.30;59.32
66524;BME280;53350;52.210;5.160;2023-04-04T01:01:54;103114.28;;;5.31;58.87
66524;BME280;53350;52.210;5.160;2023-04-04T01:04:20;103117.00;;;5.34;59.14
66524;BME280;53350;52.210;5.160;2023-04-04T01:06:47;103106.75;;;5.34;58.96
66524;BME280;53350;52.210;5.160;2023-04-04T01:09:14;103112.66;;;5.33;59.00
66524;BME280;53350;52.210;5.160;2023-04-04T01:11:41;103111.00;;;5.33;59.11
66524;BME280;53350;52.210;5.160;2023-04-04T01:14:08;103105.75;;;5.30;59.28
66524;BME280;53350;52.210;5.160;2023-04-04T01:16:35;103114.16;;;5.28;59.03
66524;BME280;53350;52.210;5.160;2023-04-04T01:19:05;103107.22;;;5.25;59.28
66524;BME280;53350;52.210;5.160;2023-04-04T01:21:34;103117.44;;;5.25;59.22
66524;BME280;53350;52.210;5.160;2023-04-04T01:24:02;103113.13;;;5.24;59.31
66524;BME280;53350;52.210;5.160;2023-04-04T01:26:31;103106.22;;;5.21;59.73
66524;BME280;53350;52.210;5.160;2023-04-04T01:28:58;103114.59;;;5.19;59.69
66524;BME280;53350;52.210;5.160;2023-04-04T01:31:27;103111.84;;;5.14;59.48
66524;BME280;53350;52.210;5.160;2023-04-04T01:33:57;103098.75;;;5.08;59.79
66524;BME280;53350;52.210;5.160;2023-04-04T01:36:29;103115.78;;;5.08;59.47
66524;BME280;53350;52.210;5.160;2023-04-04T01:38:58;103115.72;;;5.06;59.51
66524;BME280;53350;52.210;5.160;2023-04-04T01:41:32;103119.72;;;5.01;59.74
66524;BME280;53350;52.210;5.160;2023-04-04T01:43:59;103120.38;;;4.97;59.75
66524;BME280;53350;52.210;5.160;2023-04-04T01:46:26;103121.13;;;4.94;59.97
66524;BME280;53350;52.210;5.160;2023-04-04T01:48:52;103118.16;;;4.86;59.95
66524;BME280;53350;52.210;5.160;2023-04-04T01:51:20;103114.53;;;4.81;60.00
66524;BME280;53350;52.210;5.160;2023-04-04T01:53:47;103105.03;;;4.79;60.08
66524;BME280;53350;52.210;5.160;2023-04-04T01:56:14;103106.72;;;4.78;60.21
66524;BME280;53350;52.210;5.160;2023-04-04T01:58:42;103105.75;;;4.76;60.01
66524;BME280;53350;52.210;5.160;2023-04-04T02:01:08;103104.91;;;4.76;60.32
66524;BME280;53350;52.210;5.160;2023-04-04T02:03:34;103110.88;;;4.76;60.40
66524;BME280;53350;52.210;5.160;2023-04-04T02:06:01;103107.44;;;4.76;60.08
66524;BME280;53350;52.210;5.160;2023-04-04T02:08:27;103114.06;;;4.72;59.93
66524;BME280;53350;52.210;5.160;2023-04-04T02:10:56;103111.16;;;4.64;59.92
66524;BME280;53350;52.210;5.160;2023-04-04T02:13:22;103119.25;;;4.56;60.16
66524;BME280;53350;52.210;5.160;2023-04-04T02:15:50;103121.41;;;4.48;60.42
66524;BME280;53350;52.210;5.160;2023-04-04T02:18:17;103119.72;;;4.48;60.43
66524;BME280;53350;52.210;5.160;2023-04-04T02:20:44;103118.03;;;4.49;60.30
66524;BME280;53350;52.210;5.160;2023-04-04T02:23:10;103119.09;;;4.52;60.32
66524;BME280;53350;52.210;5.160;2023-04-04T02:25:37;103120.69;;;4.50;60.51
66524;BME280;53350;52.210;5.160;2023-04-04T02:28:03;103116.38;;;4.49;60.36
66524;BME280;53350;52.210;5.160;2023-04-04T02:30:30;103120.69;;;4.50;60.57
66524;BME280;53350;52.210;5.160;2023-04-04T02:32:58;103114.78;;;4.51;60.38
66524;BME280;53350;52.210;5.160;2023-04-04T02:35:24;103103.91;;;4.56;60.48
66524;BME280;53350;52.210;5.160;2023-04-04T02:37:51;103112.44;;;4.56;60.42
66524;BME280;53350;52.210;5.160;2023-04-04T02:40:17;103116.53;;;4.52;60.26
66524;BME280;53350;52.210;5.160;2023-04-04T02:42:44;103102.09;;;4.53;60.48
66524;BME280;53350;52.210;5.160;2023-04-04T02:45:11;103096.91;;;4.51;60.17
66524;BME280;53350;52.210;5.160;2023-04-04T02:47:39;103096.19;;;4.54;60.53
66524;BME280;53350;52.210;5.160;2023-04-04T02:50:07;103092.84;;;4.55;59.91
66524;BME280;53350;52.210;5.160;2023-04-04T02:52:34;103093.63;;;4.54;60.31
66524;BME280;53350;52.210;5.160;2023-04-04T02:55:00;103091.94;;;4.55;60.41
66524;BME280;53350;52.210;5.160;2023-04-04T02:57:27;103093.56;;;4.52;60.42
66524;BME280;53350;52.210;5.160;2023-04-04T02:59:54;103088.38;;;4.51;60.33
66524;BME280;53350;52.210;5.160;2023-04-04T03:02:22;103082.41;;;4.50;60.16
66524;BME280;53350;52.210;5.160;2023-04-04T03:04:49;103089.19;;;4.50;60.23
66524;BME280;53350;52.210;5.160;2023-04-04T03:07:16;103086.56;;;4.48;60.34
66524;BME280;53350;52.210;5.160;2023-04-04T03:09:43;103094.13;;;4.47;60.28
66524;BME280;53350;52.210;5.160;2023-04-04T03:12:10;103091.38;;;4.42;60.61
66524;BME280;53350;52.210;5.160;2023-04-04T03:14:36;103082.75;;;4.40;60.69
66524;BME280;53350;52.210;5.160;2023-04-04T03:17:03;103086.25;;;4.42;60.62
66524;BME280;53350;52.210;5.160;2023-04-04T03:19:30;103090.47;;;4.42;60.58
66524;BME280;53350;52.210;5.160;2023-04-04T03:21:57;103084.44;;;4.40;60.50
66524;BME280;53350;52.210;5.160;2023-04-04T03:24:24;103086.91;;;4.38;60.48
66524;BME280;53350;52.210;5.160;2023-04-04T03:26:52;103088.53;;;4.36;60.75
66524;BME280;53350;52.210;5.160;2023-04-04T03:29:19;103082.53;;;4.35;60.76
66524;BME280;53350;52.210;5.160;2023-04-04T03:31:45;103075.59;;;4.33;60.91
66524;BME280;53350;52.210;5.160;2023-04-04T03:34:12;103080.03;;;4.37;60.90
66524;BME280;53350;52.210;5.160;2023-04-04T03:36:38;103086.84;;;4.37;60.74
66524;BME280;53350;52.210;5.160;2023-04-04T03:39:05;103082.44;;;4.34;60.90
66524;BME280;53350;52.210;5.160;2023-04-04T03:41:33;103081.44;;;4.30;61.08
66524;BME280;53350;52.210;5.160;2023-04-04T03:44:02;103082.16;;;4.28;60.86
66524;BME280;53350;52.210;5.160;2023-04-04T03:46:29;103079.59;;;4.28;61.08
66524;BME280;53350;52.210;5.160;2023-04-04T03:48:55;103087.25;;;4.28;61.07
66524;BME280;53350;52.210;5.160;2023-04-04T03:51:22;103088.81;;;4.26;61.21
66524;BME280;53350;52.210;5.160;2023-04-04T03:53:49;103082.00;;;4.25;61.19
66524;BME280;53350;52.210;5.160;2023-04-04T03:56:16;103086.28;;;4.26;61.14
66524;BME280;53350;52.210;5.160;2023-04-04T03:58:43;103088.03;;;4.27;61.19
66524;BME280;53350;52.210;5.160;2023-04-04T04:01:10;103084.69;;;4.28;61.01
66524;BME280;53350;52.210;5.160;2023-04-04T04:03:36;103086.47;;;4.29;60.84
66524;BME280;53350;52.210;5.160;2023-04-04T04:06:03;103082.94;;;4.27;61.32
66524;BME280;53350;52.210;5.160;2023-04-04T04:08:30;103083.84;;;4.27;61.34
66524;BME280;53350;52.210;5.160;2023-04-04T04:11:02;103092.34;;;4.28;61.42
66524;BME280;53350;52.210;5.160;2023-04-04T04:13:29;103086.38;;;4.27;61.34
66524;BME280;53350;52.210;5.160;2023-04-04T04:15:57;103090.53;;;4.25;61.38
66524;BME280;53350;52.210;5.160;2023-04-04T04:18:23;103087.03;;;4.23;61.29
66524;BME280;53350;52.210;5.160;2023-04-04T04:20:49;103089.50;;;4.22;61.27
66524;BME280;53350;52.210;5.160;2023-04-04T04:23:16;103095.41;;;4.21;61.48
66524;BME280;53350;52.210;5.160;2023-04-04T04:25:46;103096.97;;;4.18;61.46
66524;BME280;53350;52.210;5.160;2023-04-04T04:28:12;103091.97;;;4.20;61.56
66524;BME280;53350;52.210;5.160;2023-04-04T04:30:39;103097.16;;;4.22;61.52
66524;BME280;53350;52.210;5.160;2023-04-04T04:33:06;103084.41;;;4.22;61.65
66524;BME280;53350;52.210;5.160;2023-04-04T04:35:35;103081.78;;;4.20;61.25
66524;BME280;53350;52.210;5.160;2023-04-04T04:38:01;103094.41;;;4.18;61.60
66524;BME280;53350;52.210;5.160;2023-04-04T04:40:27;103091.00;;;4.18;61.66
66524;BME280;53350;52.210;5.160;2023-04-04T04:42:54;103094.41;;;4.18;61.70
66524;BME280;53350;52.210;5.160;2023-04-04T04:45:20;103091.88;;;4.18;61.67
66524;BME280;53350;52.210;5.160;2023-04-04T04:47:47;103095.25;;;4.17;61.75
66524;BME280;53350;52.210;5.160;2023-04-04T04:50:15;103093.47;;;4.16;61.64
66524;BME280;53350;52.210;5.160;2023-04-04T04:52:42;103102.91;;;4.17;61.63
66524;BME280;53350;52.210;5.160;2023-04-04T04:55:09;103099.38;;;4.15;61.72
66524;BME280;53350;52.210;5.160;2023-04-04T04:57:37;103099.28;;;4.14;61.65
66524;BME280;53350;52.210;5.160;2023-04-04T05:00:04;103096.66;;;4.12;61.93
66524;BME280;53350;52.210;5.160;2023-04-04T05:02:31;103103.53;;;4.13;62.29
66524;BME280;53350;52.210;5.160;2023-04-04T05:04:57;103099.28;;;4.14;62.07
66524;BME280;53350;52.210;5.160;2023-04-04T05:07:25;103100.97;;;4.13;62.29
66524;BME280;53350;52.210;5.160;2023-04-04T05:09:52;103096.75;;;4.14;62.14
66524;BME280;53350;52.210;5.160;2023-04-04T05:12:18;103092.28;;;4.10;62.05
66524;BME280;53350;52.210;5.160;2023-04-04T05:14:45;103096.53;;;4.09;62.20
66524;BME280;53350;52.210;5.160;2023-04-04T05:17:11;103104.16;;;4.09;62.06
66524;BME280;53350;52.210;5.160;2023-04-04T05:19:37;103098.22;;;4.09;62.23
66524;BME280;53350;52.210;5.160;2023-04-04T05:22:05;103102.41;;;4.08;62.34
66524;BME280;53350;52.210;5.160;2023-04-04T05:24:33;103105.84;;;4.09;62.40
66524;BME280;53350;52.210;5.160;2023-04-04T05:26:59;103105.84;;;4.09;62.21
66524;BME280;53350;52.210;5.160;2023-04-04T05:29:25;103111.75;;;4.08;62.23
66524;BME280;53350;52.210;5.160;2023-04-04T05:31:53;103107.34;;;4.05;62.01
66524;BME280;53350;52.210;5.160;2023-04-04T05:34:19;103105.63;;;4.04;62.56
66524;BME280;53350;52.210;5.160;2023-04-04T05:36:46;103107.28;;;4.04;62.45
66524;BME280;53350;52.210;5.160;2023-04-04T05:39:12;103102.25;;;4.05;62.43
66524;BME280;53350;52.210;5.160;2023-04-04T05:41:40;103106.56;;;4.06;62.28
66524;BME280;53350;52.210;5.160;2023-04-04T05:44:06;103101.47;;;4.06;62.42
66524;BME280;53350;52.210;5.160;2023-04-04T05:46:33;103103.22;;;4.07;62.22
66524;BME280;53350;52.210;5.160;2023-04-04T05:49:00;103099.84;;;4.08;62.43
66524;BME280;53350;52.210;5.160;2023-04-04T05:51:26;103105.16;;;4.11;62.67
66524;BME280;53350;52.210;5.160;2023-04-04T05:53:52;103102.81;;;4.16;62.40
66524;BME280;53350;52.210;5.160;2023-04-04T05:56:19;103100.41;;;4.19;62.38
66524;BME280;53350;52.210;5.160;2023-04-04T05:58:47;103098.81;;;4.21;62.52
66524;BME280;53350;52.210;5.160;2023-04-04T06:01:13;103104.88;;;4.23;62.33
66524;BME280;53350;52.210;5.160;2023-04-04T06:03:40;103106.69;;;4.26;62.48
66524;BME280;53350;52.210;5.160;2023-04-04T06:06:07;103107.72;;;4.29;62.29
66524;BME280;53350;52.210;5.160;2023-04-04T06:08:34;103107.81;;;4.31;62.02
66524;BME280;53350;52.210;5.160;2023-04-04T06:11:00;103105.25;;;4.31;62.19
66524;BME280;53350;52.210;5.160;2023-04-04T06:13:27;103101.09;;;4.33;62.31
66524;BME280;53350;52.210;5.160;2023-04-04T06:15:54;103098.72;;;4.36;62.27
66524;BME280;53350;52.210;5.160;2023-04-04T06:18:21;103097.97;;;4.39;62.13
66524;BME280;53350;52.210;5.160;2023-04-04T06:20:47;103094.84;;;4.44;61.88
66524;BME280;53350;52.210;5.160;2023-04-04T06:23:14;103088.31;;;4.49;61.86
66524;BME280;53350;52.210;5.160;2023-04-04T06:25:40;103091.94;;;4.55;61.81
66524;BME280;53350;52.210;5.160;2023-04-04T06:28:07;103089.72;;;4.61;61.87
66524;BME280;53350;52.210;5.160;2023-04-04T06:30:35;103095.97;;;4.67;61.88
66524;BME280;53350;52.210;5.160;2023-04-04T06:33:04;103104.91;;;4.76;61.87
66524;BME280;53350;52.210;5.160;2023-04-04T06:35:31;103104.59;;;4.87;61.59
66524;BME280;53350;52.210;5.160;2023-04-04T06:37:57;103115.56;;;5.03;61.51
66524;BME280;53350;52.210;5.160;2023-04-04T06:40:24;103114.53;;;5.17;61.48
66524;BME280;53350;52.210;5.160;2023-04-04T06:42:51;103110.13;;;5.33;60.98
66524;BME280;53350;52.210;5.160;2023-04-04T06:45:19;103115.75;;;5.44;61.02
66524;BME280;53350;52.210;5.160;2023-04-04T06:47:45;103112.94;;;5.57;60.50
66524;BME280;53350;52.210;5.160;2023-04-04T06:50:15;103113.97;;;5.61;60.37
66524;BME280;53350;52.210;5.160;2023-04-04T06:52:42;103107.00;;;5.78;59.71
66524;BME280;53350;52.210;5.160;2023-04-04T06:55:09;103105.81;;;5.89;59.65
66524;BME280;53350;52.210;5.160;2023-04-04T06:57:35;103109.00;;;6.03;59.08
66524;BME280;53350;52.210;5.160;2023-04-04T07:00:03;103099.47;;;6.20;58.85
66524;BME280;53350;52.210;5.160;2023-04-04T07:02:29;103104.56;;;6.39;57.61
66524;BME280;53350;52.210;5.160;2023-04-04T07:04:56;103119.44;;;6.48;57.81
66524;BME280;53350;52.210;5.160;2023-04-04T07:07:24;103106.25;;;6.60;57.28
66524;BME280;53350;52.210;5.160;2023-04-04T07:09:50;103116.97;;;6.71;56.78
66524;BME280;53350;52.210;5.160;2023-04-04T07:12:17;103111.31;;;6.79;56.30
66524;BME280;53350;52.210;5.160;2023-04-04T07:14:43;103116.00;;;6.90;56.04
66524;BME280;53350;52.210;5.160;2023-04-04T07:17:09;103118.41;;;7.08;55.65
66524;BME280;53350;52.210;5.160;2023-04-04T07:19:36;103117.25;;;7.22;55.17
66524;BME280;53350;52.210;5.160;2023-04-04T07:22:02;103111.97;;;7.40;54.52
66524;BME280;53350;52.210;5.160;2023-04-04T07:24:30;103105.13;;;7.63;53.91
66524;BME280;53350;52.210;5.160;2023-04-04T07:26:56;103104.09;;;7.82;52.77
66524;BME280;53350;52.210;5.160;2023-04-04T07:29:23;103109.69;;;7.96;52.16
66524;BME280;53350;52.210;5.160;2023-04-04T07:31:49;103108.53;;;8.12;53.08
66524;BME280;53350;52.210;5.160;2023-04-04T07:34:16;103102.06;;;8.24;52.21
66524;BME280;53350;52.210;5.160;2023-04-04T07:36:44;103109.44;;;8.39;51.54
66524;BME280;53350;52.210;5.160;2023-04-04T07:39:10;103094.44;;;8.51;51.08
66524;BME280;53350;52.210;5.160;2023-04-04T07:41:38;103097.47;;;8.65;50.46
66524;BME280;53350;52.210;5.160;2023-04-04T07:44:06;103106.56;;;8.81;50.59
66524;BME280;53350;52.210;5.160;2023-04-04T07:46:32;103098.44;;;8.96;50.26
66524;BME280;53350;52.210;5.160;2023-04-04T07:48:59;103100.56;;;9.09;49.97
66524;BME280;53350;52.210;5.160;2023-04-04T07:51:26;103098.22;;;9.17;49.26
66524;BME280;53350;52.210;5.160;2023-04-04T07:53:54;103096.75;;;9.25;48.69
66524;BME280;53350;52.210;5.160;2023-04-04T07:56:20;103099.66;;;9.36;48.31
66524;BME280;53350;52.210;5.160;2023-04-04T07:58:48;103096.50;;;9.46;48.13
66524;BME280;53350;52.210;5.160;2023-04-04T08:01:15;103093.50;;;9.61;46.81
66524;BME280;53350;52.210;5.160;2023-04-04T08:03:41;103093.22;;;9.82;45.55
66524;BME280;53350;52.210;5.160;2023-04-04T08:06:08;103083.25;;;9.95;45.34
66524;BME280;53350;52.210;5.160;2023-04-04T08:08:35;103080.94;;;10.04;44.69
66524;BME280;53350;52.210;5.160;2023-04-04T08:11:01;103078.63;;;10.15;44.37
66524;BME280;53350;52.210;5.160;2023-04-04T08:13:28;103079.63;;;10.20;43.33
66524;BME280;53350;52.210;5.160;2023-04-04T08:15:56;103077.91;;;10.20;43.45
66524;BME280;53350;52.210;5.160;2023-04-04T08:18:22;103083.22;;;10.28;43.18
66524;BME280;53350;52.210;5.160;2023-04-04T08:20:49;103083.59;;;10.40;42.75
66524;BME280;53350;52.210;5.160;2023-04-04T08:23:15;103085.66;;;10.55;41.50
66524;BME280;53350;52.210;5.160;2023-04-04T08:25:42;103070.25;;;10.58;40.71
66524;BME280;53350;52.210;5.160;2023-04-04T08:28:10;103071.16;;;10.59;40.40
66524;BME280;53350;52.210;5.160;2023-04-04T08:30:36;103076.47;;;10.67;40.13
66524;BME280;53350;52.210;5.160;2023-04-04T08:33:04;103067.25;;;10.76;39.77
66524;BME280;53350;52.210;5.160;2023-04-04T08:35:30;103074.25;;;10.82;39.78
66524;BME280;53350;52.210;5.160;2023-04-04T08:37:57;103062.44;;;10.92;39.68
66524;BME280;53350;52.210;5.160;2023-04-04T08:40:26;103052.44;;;11.07;39.01
66524;BME280;53350;52.210;5.160;2023-04-04T08:42:55;103055.25;;;11.17;38.44
66524;BME280;53350;52.210;5.160;2023-04-04T08:45:22;103051.13;;;11.26;37.89
66524;BME280;53350;52.210;5.160;2023-04-04T08:47:51;103054.66;;;11.30;37.71
66524;BME280;53350;52.210;5.160;2023-04-04T08:50:19;103055.56;;;11.34;37.18
66524;BME280;53350;52.210;5.160;2023-04-04T08:52:45;103062.53;;;11.38;36.48
66524;BME280;53350;52.210;5.160;2023-04-04T08:55:12;103065.16;;;11.39;36.70
66524;BME280;53350;52.210;5.160;2023-04-04T08:57:39;103068.63;;;11.40;36.83
66524;BME280;53350;52.210;5.160;2023-04-04T09:00:07;103069.28;;;11.31;36.39
66524;BME280;53350;52.210;5.160;2023-04-04T09:02:38;103059.72;;;11.25;35.92
66524;BME280;53350;52.210;5.160;2023-04-04T09:05:06;103060.59;;;11.26;35.47
66524;BME280;53350;52.210;5.160;2023-04-04T09:07:36;103059.59;;;11.21;35.86
66524;BME280;53350;52.210;5.160;2023-04-04T09:10:03;103067.38;;;11.22;36.14
66524;BME280;53350;52.210;5.160;2023-04-04T09:12:31;103063.03;;;11.20;36.31
66524;BME280;53350;52.210;5.160;2023-04-04T09:15:01;103069.81;;;11.14;35.43
66524;BME280;53350;52.210;5.160;2023-04-04T09:17:28;103064.19;;;10.93;35.56
66524;BME280;53350;52.210;5.160;2023-04-04T09:19:54;103082.97;;;10.87;35.29
66524;BME280;53350;52.210;5.160;2023-04-04T09:22:21;103081.25;;;10.86;35.13
66524;BME280;53350;52.210;5.160;2023-04-04T09:24:48;103075.09;;;10.81;35.59
66524;BME280;53350;52.210;5.160;2023-04-04T09:27:16;103073.44;;;10.85;35.59
66524;BME280;53350;52.210;5.160;2023-04-04T09:29:42;103063.31;;;10.92;35.49
66524;BME280;53350;52.210;5.160;2023-04-04T09:32:09;103073.66;;;10.94;35.83
66524;BME280;53350;52.210;5.160;2023-04-04T09:34:36;103067.75;;;10.98;35.89
66524;BME280;53350;52.210;5.160;2023-04-04T09:37:03;103073.09;;;11.07;36.63
66524;BME280;53350;52.210;5.160;2023-04-04T09:39:31;103061.28;;;11.19;35.93
66524;BME280;53350;52.210;5.160;2023-04-04T09:41:59;103069.97;;;11.24;35.81
66524;BME280;53350;52.210;5.160;2023-04-04T09:44:27;103063.78;;;11.14;35.74
66524;BME280;53350;52.210;5.160;2023-04-04T09:47:06;103061.00;;;11.05;36.25
66524;BME280;53350;52.210;5.160;2023-04-04T09:49:48;103048.00;;;11.00;36.93
66524;BME280;53350;52.210;5.160;2023-04-04T09:52:17;103038.50;;;10.99;36.23
66524;BME280;53350;52.210;5.160;2023-04-04T09:54:43;103047.97;;;10.99;36.55
66524;BME280;53350;52.210;5.160;2023-04-04T09:57:11;103044.56;;;11.00;37.11
66524;BME280;53350;52.210;5.160;2023-04-04T09:59:38;103046.25;;;10.99;37.04
66524;BME280;53350;52.210;5.160;2023-04-04T10:02:07;103042.00;;;11.00;37.18
66524;BME280;53350;52.210;5.160;2023-04-04T10:04:34;103042.13;;;11.07;36.85
66524;BME280;53350;52.210;5.160;2023-04-04T10:07:01;103034.31;;;11.03;36.94
66524;BME280;53350;52.210;5.160;2023-04-04T10:09:28;103045.44;;;11.02;37.20
66524;BME280;53350;52.210;5.160;2023-04-04T10:12:06;103029.97;;;11.02;37.55
66524;BME280;53350;52.210;5.160;2023-04-04T10:14:35;103031.19;;;11.19;37.41
66524;BME280;53350;52.210;5.160;2023-04-04T10:17:06;103037.38;;;11.26;36.88
66524;BME280;53350;52.210;5.160;2023-04-04T10:19:33;103038.97;;;11.21;36.64
66524;BME280;53350;52.210;5.160;2023-04-04T10:22:01;103045.72;;;11.14;36.77
66524;BME280;53350;52.210;5.160;2023-04-04T10:24:28;103043.16;;;11.14;37.10
66524;BME280;53350;52.210;5.160;2023-04-04T10:26:54;103030.16;;;11.09;36.85
66524;BME280;53350;52.210;5.160;2023-04-04T10:29:21;103034.41;;;11.07;36.38
66524;BME280;53350;52.210;5.160;2023-04-04T10:31:52;103036.19;;;11.10;36.55
66524;BME280;53350;52.210;5.160;2023-04-04T10:34:27;103031.97;;;11.15;36.48
66524;BME280;53350;52.210;5.160;2023-04-04T10:37:00;103026.19;;;11.25;36.70
66524;BME280;53350;52.210;5.160;2023-04-04T10:39:32;103026.78;;;11.13;36.81
66524;BME280;53350;52.210;5.160;2023-04-04T10:42:04;103025.78;;;11.05;36.88
66524;BME280;53350;52.210;5.160;2023-04-04T10:44:32;103018.78;;;11.00;37.26
66524;BME280;53350;52.210;5.160;2023-04-04T10:47:05;103017.16;;;11.05;37.41
66524;BME280;53350;52.210;5.160;2023-04-04T10:49:34;103017.25;;;11.09;37.79
66524;BME280;53350;52.210;5.160;2023-04-04T10:52:02;103007.81;;;11.10;37.65
66524;BME280;53350;52.210;5.160;2023-04-04T10:54:28;103012.22;;;11.16;37.72
66524;BME280;53350;52.210;5.160;2023-04-04T10:56:56;103011.28;;;11.12;37.41
66524;BME280;53350;52.210;5.160;2023-04-04T10:59:24;103006.94;;;11.09;37.43
66524;BME280;53350;52.210;5.160;2023-04-04T11:01:54;103002.66;;;11.10;37.69
66524;BME280;53350;52.210;5.160;2023-04-04T11:04:30;103004.31;;;11.08;36.65
66524;BME280;53350;52.210;5.160;2023-04-04T11:07:10;103001.13;;;11.20;37.00
66524;BME280;53350;52.210;5.160;2023-04-04T11:09:53;102997.84;;;11.27;37.17
66524;BME280;53350;52.210;5.160;2023-04-04T11:12:21;102996.19;;;11.32;36.87
66524;BME280;53350;52.210;5.160;2023-04-04T11:15:05;102982.41;;;11.30;37.28
66524;BME280;53350;52.210;5.160;2023-04-04T11:17:42;102988.47;;;11.34;36.86
66524;BME280;53350;52.210;5.160;2023-04-04T11:20:14;102973.03;;;11.35;36.72
66524;BME280;53350;52.210;5.160;2023-04-04T11:22:41;102989.47;;;11.40;36.47
66524;BME280;53350;52.210;5.160;2023-04-04T11:25:30;102985.88;;;11.32;37.21
66524;BME280;53350;52.210;5.160;2023-04-04T11:27:57;102987.72;;;11.39;36.99
66524;BME280;53350;52.210;5.160;2023-04-04T11:30:25;102981.69;;;11.37;37.03
66524;BME280;53350;52.210;5.160;2023-04-04T11:32:56;102970.63;;;11.43;37.05
66524;BME280;53350;52.210;5.160;2023-04-04T11:35:25;102969.97;;;11.55;37.18
66524;BME280;53350;52.210;5.160;2023-04-04T11:37:59;102967.50;;;11.62;35.55
66524;BME280;53350;52.210;5.160;2023-04-04T11:40:36;102979.47;;;11.56;34.71
66524;BME280;53350;52.210;5.160;2023-04-04T11:43:11;102959.28;;;11.36;35.36
66524;BME280;53350;52.210;5.160;2023-04-04T11:45:43;102959.94;;;11.24;35.42
66524;BME280;53350;52.210;5.160;2023-04-04T11:48:09;102964.38;;;11.31;34.97
66524;BME280;53350;52.210;5.160;2023-04-04T11:50:39;102970.38;;;11.30;35.25
66524;BME280;53350;52.210;5.160;2023-04-04T11:53:06;102958.41;;;11.34;35.32
66524;BME280;53350;52.210;5.160;2023-04-04T11:55:38;102958.53;;;11.40;35.50
66524;BME280;53350;52.210;5.160;2023-04-04T11:58:09;102957.72;;;11.43;35.01
66524;BME280;53350;52.210;5.160;2023-04-04T12:00:37;102965.44;;;11.41;35.15
66524;BME280;53350;52.210;5.160;2023-04-04T12:03:05;102961.03;;;11.37;35.25
66524;BME280;53350;52.210;5.160;2023-04-04T12:05:33;102947.22;;;11.35;35.32
66524;BME280;53350;52.210;5.160;2023-04-04T12:08:01;102954.25;;;11.42;35.14
66524;BME280;53350;52.210;5.160;2023-04-04T12:10:30;102952.56;;;11.43;35.42
66524;BME280;53350;52.210;5.160;2023-04-04T12:12:57;102940.50;;;11.43;35.59
66524;BME280;53350;52.210;5.160;2023-04-04T12:15:27;102934.50;;;11.44;35.37
66524;BME280;53350;52.210;5.160;2023-04-04T12:17:54;102923.22;;;11.39;35.77
66524;BME280;53350;52.210;5.160;2023-04-04T12:20:21;102925.00;;;11.42;35.81
66524;BME280;53350;52.210;5.160;2023-04-04T12:22:48;102915.72;;;11.52;35.79
66524;BME280;53350;52.210;5.160;2023-04-04T12:25:18;102913.25;;;11.59;35.92
66524;BME280;53350;52.210;5.160;2023-04-04T12:27:45;102913.41;;;11.69;35.50
66524;BME280;53350;52.210;5.160;2023-04-04T12:30:13;102915.09;;;11.66;35.46
66524;BME280;53350;52.210;5.160;2023-04-04T12:32:41;102922.59;;;11.53;34.61
66524;BME280;53350;52.210;5.160;2023-04-04T12:35:09;102913.84;;;11.43;34.42
66524;BME280;53350;52.210;5.160;2023-04-04T12:37:36;102905.25;;;11.44;34.85
66524;BME280;53350;52.210;5.160;2023-04-04T12:40:02;102905.44;;;11.55;34.45
66524;BME280;53350;52.210;5.160;2023-04-04T12:42:30;102900.25;;;11.53;34.89
66524;BME280;53350;52.210;5.160;2023-04-04T12:45:00;102903.66;;;11.52;35.06
66524;BME280;53350;52.210;5.160;2023-04-04T12:47:29;102899.28;;;11.46;35.19
66524;BME280;53350;52.210;5.160;2023-04-04T12:49:56;102899.06;;;11.34;35.28
66524;BME280;53350;52.210;5.160;2023-04-04T12:52:26;102896.47;;;11.33;35.35
66524;BME280;53350;52.210;5.160;2023-04-04T12:54:58;102893.16;;;11.40;35.05
66524;BME280;53350;52.210;5.160;2023-04-04T12:57:26;102892.44;;;11.48;35.57
66524;BME280;53350;52.210;5.160;2023-04-04T12:59:55;102888.28;;;11.58;35.03